Time;durP1;ratioP1;P1;durP2;ratioP2;P2;SDS_P1;SDS_P2;PMS_P1;PMS_P2;Temp;Humidity;BMP_temperature;BMP_pressure;BME280_temperature;BME280_humidity;BME280_pressure;Samples;Min_cycle;Max_cycle;Signal;HPM_P1;HPM_P2
2022/08/29 00:00:36;;;;;;;1.73;0.95;;;23.40;54.80;;;;;;10533880;28;20024;-51
2022/08/29 00:05:37;;;;;;;2.42;1.40;;;23.40;54.70;;;;;;10515669;28;20027;-47
2022/08/29 00:10:40;;;;;;;2.97;1.20;;;23.40;54.70;;;;;;10533182;28;20034;-52
2022/08/29 00:15:41;;;;;;;2.35;1.00;;;23.40;54.70;;;;;;10515088;28;20115;-48
2022/08/29 00:20:43;;;;;;;2.40;1.02;;;23.40;54.70;;;;;;10514876;28;20403;-50
2022/08/29 00:25:44;;;;;;;1.70;1.20;;;23.40;54.60;;;;;;10532658;28;20540;-51
2022/08/29 00:30:45;;;;;;;2.70;1.58;;;23.40;54.60;;;;;;10498877;28;20028;-49
2022/08/29 00:35:46;;;;;;;2.03;1.08;;;23.40;54.60;;;;;;10520635;28;20028;-52
2022/08/29 00:40:52;;;;;;;2.47;1.25;;;23.40;54.50;;;;;;10531942;28;20046;-52
2022/08/29 00:46:10;;;;;;;1.73;1.10;;;23.40;54.50;;;;;;10532141;28;20039;-49
2022/08/29 00:51:16;;;;;;;3.58;1.13;;;23.40;54.50;;;;;;10532347;28;20070;-50
2022/08/29 00:56:18;;;;;;;2.25;1.08;;;23.40;54.50;;;;;;10513940;28;20450;-49
2022/08/29 01:01:19;;;;;;;1.70;1.20;;;23.40;54.40;;;;;;10513249;28;20035;-49
2022/08/29 01:06:21;;;;;;;1.85;1.20;;;23.30;54.30;;;;;;10531567;28;20379;-48
2022/08/29 01:16:43;;;;;;;2.20;1.35;;;23.30;54.20;;;;;;10515587;28;20040;-49
2022/08/29 01:21:55;;;;;;;1.73;1.25;;;23.30;54.10;;;;;;10512810;28;20137;-49
2022/08/29 01:26:56;;;;;;;2.35;1.10;;;23.30;54.10;;;;;;10512014;28;20051;-49
2022/08/29 01:31:57;;;;;;;1.60;1.10;;;23.30;54.10;;;;;;10470485;28;20043;-52
2022/08/29 01:37:03;;;;;;;2.10;1.05;;;23.30;54.00;;;;;;10528339;28;20035;-51
2022/08/29 01:42:10;;;;;;;1.85;1.17;;;23.30;54.00;;;;;;10511652;28;20236;-51
2022/08/29 01:47:11;;;;;;;3.60;1.20;;;23.30;54.00;;;;;;10512269;28;20102;-49
2022/08/29 01:52:11;;;;;;;2.35;1.38;;;23.30;54.00;;;;;;10530048;28;20135;-49
2022/08/29 01:57:15;;;;;;;2.00;1.00;;;23.20;53.90;;;;;;10529692;28;20471;-50
2022/08/29 02:02:27;;;;;;;2.83;1.00;;;23.20;53.80;;;;;;10530103;28;20024;-49
2022/08/29 02:07:28;;;;;;;3.35;0.95;;;23.30;53.90;;;;;;10511900;28;20529;-50
2022/08/29 02:12:30;;;;;;;2.40;1.15;;;23.20;53.80;;;;;;10529089;28;20038;-50
2022/08/29 02:17:30;;;;;;;1.98;1.20;;;23.20;53.80;;;;;;10529770;28;20467;-47
2022/08/29 02:22:31;;;;;;;2.00;1.00;;;23.20;53.70;;;;;;10510974;28;20073;-48
2022/08/29 02:27:32;;;;;;;1.83;1.27;;;23.20;53.70;;;;;;10504652;28;20020;-51
2022/08/29 02:32:33;;;;;;;1.83;1.23;;;23.20;53.70;;;;;;10471653;28;20038;-48
2022/08/29 02:37:33;;;;;;;2.42;1.00;;;23.20;53.70;;;;;;10528471;28;20036;-51
2022/08/29 02:42:34;;;;;;;2.95;1.42;;;23.20;53.60;;;;;;10510816;28;20032;-50
2022/08/29 02:47:35;;;;;;;2.30;1.10;;;23.20;53.60;;;;;;10510595;28;20259;-50
2022/08/29 02:52:39;;;;;;;1.83;0.90;;;23.20;53.50;;;;;;10528892;28;20391;-49
2022/08/29 02:57:41;;;;;;;2.67;1.25;;;23.10;53.50;;;;;;10536428;28;20539;-48
2022/08/29 03:02:46;;;;;;;2.42;1.30;;;23.10;53.30;;;;;;10518100;28;20028;-51
2022/08/29 03:07:47;;;;;;;1.48;1.00;;;23.10;53.20;;;;;;10536368;28;20423;-48
2022/08/29 03:12:48;;;;;;;2.60;1.05;;;23.10;53.20;;;;;;10517704;28;20118;-49
2022/08/29 03:17:49;;;;;;;1.95;1.55;;;23.10;53.20;;;;;;10536239;28;20028;-50
2022/08/29 03:22:52;;;;;;;2.65;1.33;;;23.10;53.20;;;;;;10517654;28;20028;-50
2022/08/29 03:27:53;;;;;;;2.45;1.13;;;23.10;53.10;;;;;;10525738;28;20048;-48
2022/08/29 03:32:55;;;;;;;1.98;1.08;;;23.10;53.00;;;;;;10498790;28;20364;-48
2022/08/29 03:37:56;;;;;;;3.78;1.35;;;23.00;52.90;;;;;;10517055;28;20522;-49
2022/08/29 03:42:57;;;;;;;2.10;1.05;;;23.10;53.00;;;;;;10534600;28;20051;-51
2022/08/29 03:47:57;;;;;;;2.78;1.05;;;23.00;52.90;;;;;;10535066;28;20471;-49
2022/08/29 03:52:58;;;;;;;1.90;1.02;;;23.00;52.80;;;;;;10534400;28;20032;-50
2022/08/29 03:57:59;;;;;;;2.28;1.05;;;23.00;52.70;;;;;;10516080;28;20085;-48
2022/08/29 04:03:00;;;;;;;1.95;1.00;;;23.00;52.70;;;;;;10533594;28;20028;-51
2022/08/29 04:08:01;;;;;;;2.55;1.40;;;23.00;52.70;;;;;;10515000;28;20103;-48
2022/08/29 04:13:03;;;;;;;1.17;0.70;;;23.00;52.90;;;;;;10533409;28;20040;-48
2022/08/29 04:18:07;;;;;;;2.58;1.33;;;23.00;52.80;;;;;;10533182;28;20110;-51
2022/08/29 04:23:11;;;;;;;1.63;1.20;;;23.00;52.80;;;;;;10533282;28;20040;-48
2022/08/29 04:28:13;;;;;;;2.55;1.10;;;23.00;52.70;;;;;;10521238;28;20032;-49
2022/08/29 04:33:14;;;;;;;2.47;1.45;;;22.90;52.70;;;;;;10481928;28;20081;-48
2022/08/29 04:38:15;;;;;;;2.13;0.90;;;23.00;52.90;;;;;;10533096;28;20044;-47
2022/08/29 04:43:16;;;;;;;2.53;1.20;;;23.00;52.80;;;;;;10533530;28;20024;-47
2022/08/29 04:48:17;;;;;;;2.15;1.27;;;22.90;52.90;;;;;;10531950;28;20032;-51
2022/08/29 04:53:18;;;;;;;1.55;1.00;;;23.00;52.80;;;;;;10528320;28;20089;-49
2022/08/29 04:58:18;;;;;;;2.13;1.20;;;22.90;52.80;;;;;;10532172;28;20111;-49
2022/08/29 05:03:21;;;;;;;2.28;1.33;;;22.90;52.90;;;;;;10533348;28;20112;-50
2022/08/29 05:08:22;;;;;;;2.38;1.10;;;22.90;52.90;;;;;;10533282;28;20051;-48
2022/08/29 05:13:23;;;;;;;1.80;1.00;;;22.90;52.90;;;;;;10532588;28;20260;-50
2022/08/29 05:18:24;;;;;;;2.65;0.90;;;22.90;52.90;;;;;;10531951;28;20571;-49
2022/08/29 05:23:25;;;;;;;1.98;1.23;;;22.90;53.00;;;;;;10514494;28;20062;-47
2022/08/29 05:28:28;;;;;;;4.50;1.23;;;22.80;53.00;;;;;;10500469;28;20078;-51
2022/08/29 05:33:29;;;;;;;1.83;1.10;;;22.80;53.00;;;;;;10500469;28;20036;-51
2022/08/29 05:38:30;;;;;;;3.80;1.50;;;22.80;53.00;;;;;;10532005;28;20070;-48
2022/08/29 05:43:33;;;;;;;2.15;1.38;;;22.90;53.00;;;;;;10531649;28;20134;-48
2022/08/29 05:48:34;;;;;;;1.88;0.93;;;22.90;53.10;;;;;;10532214;28;20082;-49
2022/08/29 05:53:35;;;;;;;2.28;1.10;;;22.80;53.10;;;;;;10532007;28;20054;-48
2022/08/29 05:58:36;;;;;;;4.57;1.10;;;22.80;53.10;;;;;;10531664;28;20034;-50
2022/08/29 06:03:37;;;;;;;3.92;1.25;;;22.80;53.20;;;;;;10531704;28;20448;-49
2022/08/29 06:08:37;;;;;;;3.05;1.17;;;22.80;53.20;;;;;;10513539;28;20132;-51
2022/08/29 06:13:38;;;;;;;3.78;1.50;;;22.80;53.30;;;;;;10531283;28;20482;-49
2022/08/29 06:18:39;;;;;;;3.53;1.40;;;22.80;53.40;;;;;;10512704;28;20047;-51
2022/08/29 06:23:43;;;;;;;3.58;1.67;;;22.80;53.40;;;;;;10513349;28;20103;-49
2022/08/29 06:28:45;;;;;;;2.10;1.20;;;22.80;53.50;;;;;;10498533;28;20025;-51
2022/08/29 06:33:46;;;;;;;3.40;1.35;;;22.80;53.60;;;;;;10510454;28;20093;-52
2022/08/29 06:38:47;;;;;;;3.00;1.40;;;22.80;53.70;;;;;;10520918;28;20740;-51
2022/08/29 06:43:47;;;;;;;3.50;1.17;;;22.80;53.70;;;;;;10520756;28;20085;-50
2022/08/29 06:48:49;;;;;;;4.03;1.55;;;22.80;53.80;;;;;;10538663;28;20027;-50
2022/08/29 06:53:50;;;;;;;4.43;1.73;;;22.80;53.80;;;;;;10520985;28;20024;-49
2022/08/29 06:58:50;;;;;;;3.38;1.38;;;22.80;53.90;;;;;;10520532;28;20054;-50
2022/08/29 07:03:53;;;;;;;2.63;1.17;;;22.80;53.90;;;;;;10519833;28;20031;-49
2022/08/29 07:08:56;;;;;;;3.45;1.15;;;22.80;53.90;;;;;;10538044;28;20118;-50
2022/08/29 07:14:00;;;;;;;2.92;1.08;;;22.80;54.00;;;;;;10537981;28;20024;-51
2022/08/29 07:19:03;;;;;;;2.38;1.20;;;22.80;54.10;;;;;;10519396;28;20028;-48
2022/08/29 07:24:06;;;;;;;8.02;2.30;;;22.80;54.10;;;;;;10538042;28;20036;-52
2022/08/29 07:29:14;;;;;;;4.47;1.50;;;22.80;54.30;;;;;;10517769;28;20463;-50
2022/08/29 07:34:17;;;;;;;1.90;1.17;;;22.80;54.30;;;;;;10512004;28;20030;-52
2022/08/29 07:39:19;;;;;;;3.22;1.27;;;22.80;54.30;;;;;;10536210;28;20115;-50
2022/08/29 07:44:19;;;;;;;2.55;1.33;;;22.80;54.40;;;;;;10536235;28;20028;-49
2022/08/29 07:49:21;;;;;;;3.22;1.63;;;22.80;54.40;;;;;;10536506;28;20031;-49
2022/08/29 07:54:22;;;;;;;3.22;1.25;;;22.80;54.50;;;;;;10536103;28;20450;-50
2022/08/29 07:59:23;;;;;;;4.07;1.35;;;22.80;54.50;;;;;;10536019;28;20024;-52
2022/08/29 08:04:23;;;;;;;3.92;1.60;;;22.70;54.40;;;;;;10535779;28;20032;-53
2022/08/29 08:09:24;;;;;;;2.58;1.20;;;22.70;54.50;;;;;;10500482;28;20052;-52
2022/08/29 08:14:25;;;;;;;2.38;1.58;;;22.70;54.50;;;;;;10535422;28;20103;-49
2022/08/29 08:19:26;;;;;;;1.92;1.23;;;22.70;54.50;;;;;;10534960;28;20028;-52
2022/08/29 08:24:27;;;;;;;2.30;1.38;;;22.70;54.50;;;;;;10535351;28;20028;-50
2022/08/29 08:29:27;;;;;;;3.63;1.40;;;22.70;54.50;;;;;;10512871;28;20115;-52
2022/08/29 08:34:29;;;;;;;2.90;1.50;;;22.70;54.60;;;;;;10511233;28;20023;-51
2022/08/29 08:39:29;;;;;;;3.25;1.42;;;22.70;54.60;;;;;;10499551;28;20043;-52
2022/08/29 08:45:13;;;;;;;2.08;1.50;;;22.70;54.70;;;;;;10516618;28;20024;-52
2022/08/29 08:50:25;;;;;;;2.58;1.65;;;22.70;54.70;;;;;;10534175;28;20128;-52
2022/08/29 08:55:39;;;;;;;4.00;1.90;;;22.70;54.70;;;;;;10533552;28;20060;-53
2022/08/29 09:00:56;;;;;;;2.03;1.40;;;22.70;54.70;;;;;;10516238;28;20038;-51
2022/08/29 09:06:32;;;;;;;3.28;1.55;;;22.70;54.70;;;;;;10533796;28;20024;-52
2022/08/29 09:11:54;;;;;;;2.80;1.48;;;22.70;54.70;;;;;;10518209;28;20126;-48
2022/08/29 09:16:57;;;;;;;3.28;1.73;;;22.70;54.80;;;;;;10533056;28;20112;-52
2022/08/29 09:22:26;;;;;;;2.70;1.48;;;22.70;54.80;;;;;;10514348;28;20040;-52
2022/08/29 09:27:29;;;;;;;2.07;1.20;;;22.70;54.90;;;;;;10527088;28;20320;-52
2022/08/29 09:32:31;;;;;;;2.53;1.65;;;22.70;55.10;;;;;;10474930;28;20024;-48
2022/08/29 09:37:33;;;;;;;3.08;1.58;;;22.70;55.10;;;;;;10513349;28;20028;-50
2022/08/29 09:42:41;;;;;;;2.42;1.83;;;22.70;54.80;;;;;;10532390;28;20043;-52
2022/08/29 09:47:42;;;;;;;2.00;1.17;;;22.70;54.90;;;;;;10514102;28;20028;-51
2022/08/29 09:52:56;;;;;;;2.85;1.35;;;22.70;54.90;;;;;;10531793;28;20078;-52
2022/08/29 09:58:06;;;;;;;2.38;1.20;;;22.70;54.90;;;;;;10531865;28;20247;-51
2022/08/29 10:03:21;;;;;;;3.22;1.42;;;22.70;55.00;;;;;;10531632;28;20024;-49
2022/08/29 10:08:35;;;;;;;3.42;1.42;;;22.70;55.00;;;;;;10531483;28;20028;-52
2022/08/29 10:14:00;;;;;;;2.22;1.35;;;22.70;55.30;;;;;;10496841;28;20050;-49
2022/08/29 10:19:16;;;;;;;2.53;1.42;;;22.70;55.50;;;;;;10513366;28;20372;-51
2022/08/29 10:24:39;;;;;;;4.40;1.38;;;22.70;55.50;;;;;;10497590;28;20400;-52
2022/08/29 10:30:06;;;;;;;2.22;1.38;;;22.70;55.40;;;;;;10507199;28;20035;-51
2022/08/29 10:35:20;;;;;;;3.25;1.70;;;22.70;55.20;;;;;;10513540;28;20506;-50
2022/08/29 10:40:47;;;;;;;4.07;1.65;;;22.70;55.20;;;;;;10530545;28;20547;-52
2022/08/29 10:46:12;;;;;;;2.90;1.55;;;22.70;55.30;;;;;;10531275;28;20020;-50
2022/08/29 10:51:32;;;;;;;2.78;1.50;;;22.70;55.30;;;;;;10531651;28;20034;-50
2022/08/29 10:56:41;;;;;;;2.63;1.58;;;22.70;55.40;;;;;;10530679;28;20082;-52
2022/08/29 11:01:52;;;;;;;4.20;1.95;;;22.70;55.50;;;;;;10512571;28;20063;-52
2022/08/29 11:07:17;;;;;;;3.08;1.58;;;22.80;55.50;;;;;;10513001;28;20391;-51
2022/08/29 11:12:20;;;;;;;2.92;1.58;;;22.70;55.40;;;;;;10514227;28;20475;-52
2022/08/29 11:17:28;;;;;;;2.63;1.30;;;22.70;55.60;;;;;;10516069;28;20032;-51
2022/08/29 11:22:53;;;;;;;2.50;1.65;;;22.80;55.50;;;;;;10520268;28;20039;-49
2022/08/29 11:28:37;;;;;;;2.75;1.60;;;22.70;55.40;;;;;;10528169;28;20075;-52
2022/08/29 11:34:05;;;;;;;2.05;1.27;;;22.80;55.90;;;;;;10507100;28;20032;-51
2022/08/29 11:39:22;;;;;;;2.17;1.40;;;22.80;55.70;;;;;;10536490;28;20067;-52
2022/08/29 11:44:34;;;;;;;2.92;1.45;;;22.90;55.50;;;;;;10518595;28;20035;-50
2022/08/29 11:49:42;;;;;;;2.55;1.65;;;22.90;55.50;;;;;;10518219;28;20475;-51
2022/08/29 11:54:44;;;;;;;2.35;1.50;;;22.90;55.50;;;;;;10518998;28;20522;-52
2022/08/29 11:59:47;;;;;;;2.92;1.42;;;22.90;55.50;;;;;;10536083;28;20032;-52
2022/08/29 12:04:58;;;;;;;2.75;1.42;;;22.90;55.70;;;;;;10517606;28;20525;-51
2022/08/29 12:10:05;;;;;;;3.25;1.10;;;22.90;55.70;;;;;;10536364;28;20055;-50
2022/08/29 12:15:32;;;;;;;3.15;1.67;;;22.90;56.40;;;;;;10517972;28;20032;-52
2022/08/29 12:20:50;;;;;;;1.88;1.15;;;23.00;55.90;;;;;;10532959;28;20068;-52
2022/08/29 12:26:01;;;;;;;2.70;1.30;;;23.00;55.60;;;;;;10517031;28;20073;-51
2022/08/29 12:31:47;;;;;;;2.67;1.67;;;22.90;55.70;;;;;;10482039;28;20383;-53
2022/08/29 12:37:25;;;;;;;3.85;1.60;;;23.00;55.90;;;;;;10515681;28;20478;-52
2022/08/29 12:42:37;;;;;;;1.90;1.30;;;23.00;55.80;;;;;;10534063;28;20127;-51
2022/08/29 12:48:00;;;;;;;2.20;1.23;;;23.00;55.80;;;;;;10534353;28;20495;-49
2022/08/29 12:53:04;;;;;;;2.13;1.38;;;23.10;55.70;;;;;;10518209;28;20096;-52
2022/08/29 12:58:07;;;;;;;2.67;1.40;;;23.10;55.50;;;;;;10534007;28;20024;-52
2022/08/29 13:03:26;;;;;;;2.08;1.30;;;23.10;55.60;;;;;;10498701;28;20388;-50
2022/08/29 13:08:35;;;;;;;2.67;1.20;;;23.00;55.80;;;;;;10533811;28;20403;-52
2022/08/29 13:13:37;;;;;;;3.17;1.30;;;23.00;55.70;;;;;;10515497;28;20444;-51
2022/08/29 13:18:38;;;;;;;2.38;1.35;;;23.00;55.90;;;;;;10533034;28;20063;-49
2022/08/29 13:23:44;;;;;;;2.85;1.65;;;23.00;56.10;;;;;;10532737;28;20386;-51
2022/08/29 13:29:09;;;;;;;2.55;1.35;;;23.00;56.10;;;;;;10498024;28;20021;-52
2022/08/29 13:34:18;;;;;;;3.55;1.83;;;23.00;56.00;;;;;;10490389;28;20024;-49
2022/08/29 13:39:44;;;;;;;2.15;1.20;;;23.10;55.90;;;;;;10513392;28;20122;-51
2022/08/29 13:44:48;;;;;;;2.72;1.40;;;23.10;55.90;;;;;;10532167;28;20457;-52
2022/08/29 13:49:50;;;;;;;1.90;1.55;;;23.10;55.90;;;;;;10532154;28;20025;-50
2022/08/29 13:54:51;;;;;;;4.45;1.23;;;23.10;55.90;;;;;;10532154;28;20028;-51
2022/08/29 13:59:52;;;;;;;2.78;1.35;;;23.10;55.80;;;;;;10531582;28;20032;-49
2022/08/29 14:04:53;;;;;;;2.92;1.70;;;23.10;56.00;;;;;;10513662;28;20085;-54
2022/08/29 14:09:54;;;;;;;1.80;1.30;;;23.10;55.90;;;;;;10513281;28;20028;-49
2022/08/29 14:14:55;;;;;;;2.80;1.40;;;23.10;55.70;;;;;;10531417;28;20101;-50
2022/08/29 14:19:55;;;;;;;2.15;1.10;;;23.00;55.50;;;;;;10531957;28;20077;-52
2022/08/29 14:24:56;;;;;;;2.38;1.60;;;23.00;55.80;;;;;;10531581;28;20028;-52
2022/08/29 14:29:57;;;;;;;2.25;1.42;;;23.10;55.80;;;;;;10505207;28;20120;-51
2022/08/29 14:34:58;;;;;;;5.50;1.45;;;23.00;55.70;;;;;;10477466;28;20074;-52
2022/08/29 14:39:58;;;;;;;2.25;1.73;;;23.00;55.60;;;;;;10530769;28;20074;-52
2022/08/29 14:44:59;;;;;;;2.53;1.45;;;23.00;55.70;;;;;;10512795;28;20066;-51
2022/08/29 14:50:00;;;;;;;2.03;1.67;;;23.00;55.90;;;;;;10532819;28;20081;-51
2022/08/29 14:55:01;;;;;;;2.85;1.58;;;23.00;55.90;;;;;;10520608;28;20470;-49
2022/08/29 15:00:16;;;;;;;2.72;1.40;;;23.00;55.70;;;;;;10520343;28;20109;-52
2022/08/29 15:05:18;;;;;;;2.33;1.33;;;23.00;55.70;;;;;;10538451;28;20085;-52
2022/08/29 15:10:23;;;;;;;2.05;1.35;;;23.00;55.60;;;;;;10538791;28;20078;-53
2022/08/29 15:15:27;;;;;;;2.33;1.45;;;23.00;55.70;;;;;;10538093;28;20065;-50
2022/08/29 15:20:29;;;;;;;2.45;1.40;;;23.00;55.80;;;;;;10537728;28;20028;-51
2022/08/29 15:25:30;;;;;;;1.98;1.40;;;23.00;55.60;;;;;;10519489;28;20089;-52
2022/08/29 15:30:32;;;;;;;2.83;2.03;;;23.00;55.70;;;;;;10506014;28;20029;-50
2022/08/29 15:35:33;;;;;;;3.00;1.48;;;23.00;55.10;;;;;;10523421;28;20036;-49
2022/08/29 15:40:35;;;;;;;2.20;1.42;;;23.00;55.40;;;;;;10536650;28;20036;-52
2022/08/29 15:45:36;;;;;;;1.83;1.00;;;23.00;55.00;;;;;;10518685;28;20110;-51
2022/08/29 15:50:37;;;;;;;1.92;1.17;;;23.00;55.40;;;;;;10536565;28;20028;-52
2022/08/29 15:55:37;;;;;;;2.08;1.38;;;23.00;55.80;;;;;;10536214;28;20032;-49
2022/08/29 16:00:38;;;;;;;2.25;1.40;;;23.00;55.90;;;;;;10517135;28;20025;-49
2022/08/29 16:05:39;;;;;;;2.47;1.42;;;23.00;55.80;;;;;;10536614;28;20027;-53
2022/08/29 16:10:40;;;;;;;1.40;1.02;;;23.00;55.50;;;;;;10535598;28;20027;-52
2022/08/29 16:15:41;;;;;;;2.30;1.20;;;23.00;55.80;;;;;;10535516;28;20507;-52
2022/08/29 16:20:42;;;;;;;2.63;1.25;;;23.00;55.60;;;;;;10517087;28;20547;-53
2022/08/29 16:25:43;;;;;;;3.00;1.70;;;23.00;55.90;;;;;;10517165;28;20028;-50
2022/08/29 16:30:44;;;;;;;1.65;1.17;;;23.00;55.70;;;;;;10502363;28;20033;-53
2022/08/29 16:35:45;;;;;;;2.25;1.60;;;23.00;55.90;;;;;;10522163;28;20525;-55
2022/08/29 16:40:46;;;;;;;1.35;1.10;;;23.00;55.80;;;;;;10534548;28;20065;-50
2022/08/29 16:45:46;;;;;;;2.08;1.30;;;23.00;55.60;;;;;;10534904;28;20099;-51
2022/08/29 16:50:47;;;;;;;1.58;1.13;;;23.00;55.70;;;;;;10533829;28;20534;-50
2022/08/29 16:55:48;;;;;;;3.08;1.70;;;23.00;55.80;;;;;;10515347;28;20515;-50
2022/08/29 17:00:48;;;;;;;2.72;1.75;;;23.00;55.60;;;;;;10534024;28;20111;-52
2022/08/29 17:05:49;;;;;;;2.05;1.27;;;23.00;55.60;;;;;;10534203;28;20445;-48
2022/08/29 17:20:52;;;;;;;2.85;1.45;;;23.00;55.60;;;;;;10514786;28;20147;-49
2022/08/29 17:25:53;;;;;;;1.73;1.17;;;23.00;55.60;;;;;;10532719;28;20050;-50
2022/08/29 17:30:54;;;;;;;2.20;1.25;;;23.00;55.70;;;;;;10479832;28;20028;-49
2022/08/29 17:35:55;;;;;;;2.03;1.27;;;23.00;55.70;;;;;;10503237;28;20058;-50
2022/08/29 17:41:01;;;;;;;1.85;1.10;;;23.00;55.70;;;;;;10532042;28;20123;-48
2022/08/29 17:46:02;;;;;;;2.22;1.35;;;23.00;55.70;;;;;;10532109;28;20107;-52
2022/08/29 17:51:05;;;;;;;1.42;0.82;;;23.00;55.70;;;;;;10514099;28;20059;-50
2022/08/29 17:56:37;;;;;;;2.40;1.30;;;23.00;55.60;;;;;;10513856;28;20019;-52
2022/08/29 18:01:38;;;;;;;2.05;1.55;;;23.00;55.60;;;;;;10514654;28;20051;-52
2022/08/29 18:06:39;;;;;;;1.95;1.23;;;23.00;55.60;;;;;;10531491;28;20088;-51
2022/08/29 18:11:44;;;;;;;1.90;1.50;;;23.10;55.60;;;;;;10532267;28;20106;-50
2022/08/29 18:16:45;;;;;;;2.33;1.35;;;23.00;55.50;;;;;;10513628;28;20429;-52
2022/08/29 18:21:45;;;;;;;2.08;1.30;;;23.00;55.50;;;;;;10496353;28;20063;-51
2022/08/29 18:26:47;;;;;;;2.60;1.30;;;23.00;55.60;;;;;;10536996;28;20099;-49
2022/08/29 18:31:48;;;;;;;3.00;1.95;;;23.00;55.50;;;;;;10456158;28;20029;-52
2022/08/29 18:36:48;;;;;;;2.17;1.00;;;23.00;55.50;;;;;;10531761;28;20042;-50
2022/08/29 18:41:50;;;;;;;1.88;1.33;;;23.10;55.60;;;;;;10539467;28;20683;-51
2022/08/29 18:46:51;;;;;;;1.83;1.10;;;23.00;55.50;;;;;;10539027;28;20039;-50
2022/08/29 18:51:52;;;;;;;5.47;1.88;;;23.10;55.60;;;;;;10538777;28;20028;-49
2022/08/29 18:56:53;;;;;;;3.42;1.33;;;23.10;55.60;;;;;;10538780;28;20032;-52
2022/08/29 19:01:54;;;;;;;2.35;1.42;;;23.10;55.60;;;;;;10519998;28;20154;-49
2022/08/29 19:06:55;;;;;;;2.75;1.20;;;23.10;55.60;;;;;;10521033;28;20029;-52
2022/08/29 19:11:56;;;;;;;1.50;1.17;;;23.10;55.60;;;;;;10536230;28;20570;-49
2022/08/29 19:16:59;;;;;;;1.95;1.23;;;23.10;55.60;;;;;;10536014;28;20100;-50
2022/08/29 19:22:00;;;;;;;2.05;1.27;;;23.10;55.60;;;;;;10536033;28;20036;-50
2022/08/29 19:27:00;;;;;;;1.45;0.98;;;23.10;55.50;;;;;;10533095;28;20456;-51
2022/08/29 19:32:01;;;;;;;3.22;1.30;;;23.10;55.50;;;;;;10493781;28;20612;-48
2022/08/29 19:37:04;;;;;;;2.03;1.55;;;23.10;55.60;;;;;;10514686;28;20027;-50
2022/08/29 19:42:04;;;;;;;1.58;0.88;;;23.10;55.50;;;;;;10535296;28;20515;-49
2022/08/29 19:47:05;;;;;;;2.70;1.30;;;23.10;55.50;;;;;;10535767;28;20020;-48
2022/08/29 19:52:06;;;;;;;2.47;1.30;;;23.10;55.50;;;;;;10516920;28;20110;-51
2022/08/29 19:57:07;;;;;;;1.70;0.98;;;23.10;55.50;;;;;;10535183;28;20409;-50
2022/08/29 20:02:08;;;;;;;1.92;1.40;;;23.10;55.50;;;;;;10516880;28;20030;-49
2022/08/29 20:07:08;;;;;;;2.10;1.30;;;23.10;55.50;;;;;;10533822;28;20111;-50
2022/08/29 20:12:09;;;;;;;1.80;1.40;;;23.10;55.50;;;;;;10533771;28;20549;-50
2022/08/29 20:17:10;;;;;;;2.85;1.30;;;23.10;55.40;;;;;;10533685;28;20120;-49
2022/08/29 20:22:11;;;;;;;2.15;1.33;;;23.00;55.40;;;;;;10533897;28;20515;-48
2022/08/29 20:27:12;;;;;;;3.85;1.80;;;23.10;55.50;;;;;;10529655;28;20115;-50
2022/08/29 20:32:13;;;;;;;3.83;1.95;;;23.10;55.50;;;;;;10491643;28;20162;-51
2022/08/29 20:37:14;;;;;;;1.92;1.48;;;23.10;55.50;;;;;;10514944;28;20106;-49
2022/08/29 20:42:19;;;;;;;2.10;1.55;;;23.10;55.50;;;;;;10532789;28;20138;-50
2022/08/29 20:47:21;;;;;;;2.63;1.48;;;23.10;55.60;;;;;;10532549;28;20131;-48
2022/08/29 20:52:23;;;;;;;2.90;1.70;;;23.10;55.60;;;;;;10514139;28;20043;-49
2022/08/29 20:57:23;;;;;;;2.33;1.45;;;23.10;55.60;;;;;;10514936;28;20035;-50
2022/08/29 21:07:43;;;;;;;;;;;23.10;55.60;;;;;;10532113;28;20032;-51
2022/08/29 21:12:44;;;;;;;2.95;1.80;;;23.00;55.60;;;;;;10513047;28;19912;-50
2022/08/29 21:17:45;;;;;;;3.35;1.70;;;23.00;55.70;;;;;;10531885;28;20108;-49
2022/08/29 21:22:46;;;;;;;1.85;1.40;;;23.00;55.70;;;;;;10531764;28;20119;-49
2022/08/29 21:27:46;;;;;;;4.18;1.90;;;23.00;55.70;;;;;;10504336;28;20032;-48
2022/08/29 21:32:47;;;;;;;3.67;1.75;;;23.00;55.80;;;;;;10493793;28;20028;-48
2022/08/29 21:37:49;;;;;;;3.30;2.10;;;23.00;55.80;;;;;;10512486;28;20032;-50
2022/08/29 21:42:53;;;;;;;3.53;1.67;;;23.00;55.80;;;;;;10530331;28;20039;-51
2022/08/29 21:47:55;;;;;;;3.13;1.98;;;23.00;55.90;;;;;;10512506;28;20020;-49
2022/08/29 21:52:56;;;;;;;3.20;1.83;;;23.00;55.90;;;;;;10512132;28;20074;-50
2022/08/29 21:57:58;;;;;;;2.50;1.65;;;23.00;55.90;;;;;;10530032;28;20102;-50
2022/08/29 22:03:02;;;;;;;2.15;1.50;;;23.00;56.00;;;;;;10528975;28;20391;-49
2022/08/29 22:08:03;;;;;;;3.42;1.88;;;23.00;56.00;;;;;;10529626;28;20391;-49
2022/08/29 22:13:06;;;;;;;2.03;1.50;;;23.00;56.00;;;;;;10529455;28;20038;-52
2022/08/29 22:18:08;;;;;;;2.78;1.52;;;23.00;56.00;;;;;;10511798;28;20032;-49
2022/08/29 22:23:09;;;;;;;3.72;1.90;;;23.00;56.00;;;;;;10511454;28;20020;-49
2022/08/29 22:28:10;;;;;;;3.42;1.75;;;23.00;56.10;;;;;;10517800;28;20028;-48
2022/08/29 22:33:11;;;;;;;3.25;1.90;;;23.00;56.10;;;;;;10477419;28;20036;-51
2022/08/29 22:38:12;;;;;;;2.22;1.40;;;23.00;56.10;;;;;;10528946;28;20055;-49
2022/08/29 22:43:13;;;;;;;3.67;1.60;;;23.00;56.10;;;;;;10529118;28;20107;-49
2022/08/29 22:48:15;;;;;;;2.50;1.80;;;23.00;56.10;;;;;;10528928;28;20055;-50
2022/08/29 22:53:17;;;;;;;2.10;1.55;;;23.00;56.20;;;;;;10510619;28;20108;-49
2022/08/29 22:58:17;;;;;;;3.30;1.90;;;23.00;56.20;;;;;;10511584;28;20479;-50
2022/08/29 23:03:18;;;;;;;3.67;1.63;;;23.00;56.20;;;;;;10528513;28;20327;-51
2022/08/29 23:08:19;;;;;;;1.83;1.27;;;23.00;56.20;;;;;;10528766;28;20099;-48
2022/08/29 23:13:20;;;;;;;2.85;1.52;;;22.90;56.20;;;;;;10534582;28;20097;-50
2022/08/29 23:18:21;;;;;;;2.13;1.45;;;23.00;56.20;;;;;;10535680;28;20032;-50
2022/08/29 23:23:22;;;;;;;2.25;1.20;;;22.90;56.20;;;;;;10536085;28;20028;-47
2022/08/29 23:28:22;;;;;;;2.20;1.52;;;23.00;56.20;;;;;;10522786;28;20032;-50
2022/08/29 23:33:24;;;;;;;3.42;1.35;;;23.00;56.20;;;;;;10485110;28;20069;-49
2022/08/29 23:38:25;;;;;;;1.98;1.40;;;22.90;56.20;;;;;;10517117;28;20411;-49
2022/08/29 23:43:27;;;;;;;1.45;1.20;;;22.90;56.20;;;;;;10534751;28;20028;-51
2022/08/29 23:48:28;;;;;;;2.05;1.70;;;22.90;56.30;;;;;;10535507;28;20024;-50
2022/08/29 23:53:29;;;;;;;2.50;1.40;;;22.90;56.30;;;;;;10516470;28;20096;-52
2022/08/29 23:58:30;;;;;;;2.45;1.65;;;22.90;56.30;;;;;;10534853;28;20035;-51
